Time;durP1;ratioP1;P1;durP2;ratioP2;P2;SDS_P1;SDS_P2;PMS_P1;PMS_P2;Temp;Humidity;BMP_temperature;BMP_pressure;BME280_temperature;BME280_humidity;BME280_pressure;Samples;Min_cycle;Max_cycle;Signal;HPM_P1;HPM_P2
2021/12/13 00:01:44;;;;;;;29.42;16.88;;;9.90;99.90;;;;;;5049348;28;20401;-79
2021/12/13 00:04:20;;;;;;;29.67;16.50;;;9.90;99.90;;;;;;5046860;28;20033;-79
2021/12/13 00:06:49;;;;;;;23.95;13.25;;;9.90;99.90;;;;;;5066129;28;20404;-79
2021/12/13 00:09:19;;;;;;;25.63;15.90;;;9.90;99.90;;;;;;5067162;28;20044;-79
2021/12/13 00:11:49;;;;;;;28.92;16.48;;;9.90;99.90;;;;;;5067136;28;20029;-79
2021/12/13 00:14:27;;;;;;;26.15;15.75;;;9.90;99.90;;;;;;5067246;28;20172;-80
2021/12/13 00:17:01;;;;;;;25.98;16.42;;;9.90;99.90;;;;;;5067046;28;20485;-80
2021/12/13 00:19:34;;;;;;;24.40;14.10;;;9.90;99.90;;;;;;5067398;28;20056;-79
2021/12/13 00:22:05;;;;;;;22.00;13.35;;;9.90;99.90;;;;;;5048963;28;20071;-79
2021/12/13 00:24:34;;;;;;;23.00;13.20;;;9.90;99.90;;;;;;5049337;28;20495;-79
2021/12/13 00:27:05;;;;;;;23.57;12.23;;;9.90;99.90;;;;;;5048901;28;20032;-79
2021/12/13 00:29:55;;;;;;;23.23;15.23;;;9.90;99.90;;;;;;5048399;28;20283;-80
2021/12/13 00:32:58;;;;;;;23.67;14.35;;;9.90;99.90;;;;;;5065305;28;20040;-79
2021/12/13 00:35:32;;;;;;;22.83;13.60;;;9.90;99.90;;;;;;5065586;28;20032;-80
2021/12/13 00:38:04;;;;;;;27.55;15.98;;;9.90;99.90;;;;;;5065309;28;20021;-79
2021/12/13 00:40:34;;;;;;;32.15;16.48;;;9.90;99.90;;;;;;5048770;28;20029;-79
2021/12/13 00:43:08;;;;;;;31.70;18.33;;;10.00;99.90;;;;;;5048638;28;20028;-79
2021/12/13 00:45:40;;;;;;;28.45;14.88;;;9.90;99.90;;;;;;5065002;28;20096;-79
2021/12/13 00:48:08;;;;;;;33.45;19.50;;;9.90;99.90;;;;;;5065048;28;20029;-79
2021/12/13 00:50:57;;;;;;;35.85;19.63;;;10.00;99.90;;;;;;5065022;28;20036;-79
2021/12/13 00:53:23;;;;;;;40.92;23.27;;;10.00;99.90;;;;;;5064995;28;20037;-79
2021/12/13 00:55:50;;;;;;;31.92;19.58;;;10.00;99.90;;;;;;5064928;28;20473;-78
2021/12/13 00:58:21;;;;;;;34.30;19.60;;;10.00;99.90;;;;;;5065963;28;20033;-79
2021/12/13 01:01:08;;;;;;;33.28;19.65;;;10.00;99.90;;;;;;5064740;28;20037;-79
2021/12/13 01:03:47;;;;;;;32.15;18.80;;;10.00;99.90;;;;;;5064924;28;20049;-79
2021/12/13 01:06:57;;;;;;;30.52;17.98;;;9.90;99.90;;;;;;5066256;28;20044;-79
2021/12/13 01:09:41;;;;;;;;;;;10.00;99.90;;;;;;5058501;28;20041;-80
2021/12/13 01:12:14;;;;;;;28.80;17.00;;;9.90;99.90;;;;;;5064715;28;19913;-79
2021/12/13 01:14:58;;;;;;;24.00;14.70;;;9.80;99.90;;;;;;5047934;28;20060;-79
2021/12/13 01:17:56;;;;;;;37.13;21.05;;;9.80;99.90;;;;;;5064565;28;20049;-79
2021/12/13 01:20:27;;;;;;;33.50;18.85;;;9.90;99.90;;;;;;5064660;28;20036;-79
2021/12/13 01:23:05;;;;;;;36.03;20.55;;;9.90;99.90;;;;;;5066162;28;20055;-80
2021/12/13 01:28:33;;;;;;;34.87;20.20;;;9.80;99.90;;;;;;5065475;28;20025;-80
2021/12/13 01:31:22;;;;;;;36.30;19.67;;;9.80;99.90;;;;;;5026416;28;20053;-79
2021/12/13 01:33:51;;;;;;;40.83;23.13;;;9.80;99.90;;;;;;5040885;28;20053;-79
2021/12/13 01:36:24;;;;;;;43.97;24.90;;;9.80;99.90;;;;;;5044815;28;20041;-79
2021/12/13 01:38:55;;;;;;;40.22;21.77;;;9.70;99.90;;;;;;5044962;28;20037;-79
2021/12/13 01:41:31;;;;;;;46.88;24.60;;;9.70;99.90;;;;;;5043220;28;20026;-79
2021/12/13 01:44:02;;;;;;;43.83;24.55;;;9.70;99.90;;;;;;5043224;28;20064;-79
2021/12/13 01:46:33;;;;;;;44.45;25.75;;;9.70;99.90;;;;;;5043106;28;20033;-79
2021/12/13 01:48:59;;;;;;;44.92;25.60;;;9.70;99.90;;;;;;5043029;28;20462;-80
2021/12/13 01:51:27;;;;;;;41.50;23.33;;;9.70;99.90;;;;;;5043219;28;20029;-80
2021/12/13 01:54:10;;;;;;;44.67;26.27;;;9.60;99.90;;;;;;5042976;28;20046;-79
2021/12/13 01:56:55;;;;;;;42.45;24.40;;;9.60;99.90;;;;;;5026075;28;20029;-79
2021/12/13 02:02:29;;;;;;;39.13;22.85;;;9.60;99.90;;;;;;5043021;28;20060;-79
2021/12/13 02:05:00;;;;;;;41.20;21.02;;;9.70;99.90;;;;;;5026552;28;20033;-79
2021/12/13 02:07:34;;;;;;;38.58;22.40;;;9.60;99.90;;;;;;5048179;28;20081;-79
2021/12/13 02:10:01;;;;;;;36.90;21.63;;;9.60;99.90;;;;;;5064126;28;20043;-79
2021/12/13 02:12:29;;;;;;;37.00;21.25;;;9.60;99.90;;;;;;5047436;28;20076;-79
2021/12/13 02:17:48;;;;;;;41.72;22.15;;;9.60;99.90;;;;;;5048145;28;20063;-80
2021/12/13 02:20:35;;;;;;;40.65;22.83;;;9.50;99.90;;;;;;5047181;28;20033;-80
2021/12/13 02:23:01;;;;;;;43.20;23.73;;;9.50;99.90;;;;;;5065352;28;20021;-80
2021/12/13 02:25:29;;;;;;;42.75;23.13;;;9.50;99.90;;;;;;5047297;28;20037;-80
2021/12/13 02:28:06;;;;;;;38.80;21.35;;;9.50;99.90;;;;;;5047124;28;20025;-80
2021/12/13 02:31:04;;;;;;;35.20;20.55;;;9.40;99.90;;;;;;5063720;28;20472;-79
2021/12/13 02:33:36;;;;;;;36.08;21.08;;;9.50;99.90;;;;;;5063997;28;20051;-79
2021/12/13 02:36:08;;;;;;;40.80;21.85;;;9.40;99.90;;;;;;5047453;28;20036;-80
2021/12/13 02:38:35;;;;;;;41.85;23.67;;;9.40;99.90;;;;;;5046990;28;20040;-79
2021/12/13 02:41:02;;;;;;;38.25;22.05;;;9.40;99.90;;;;;;5063927;28;20092;-79
2021/12/13 02:43:35;;;;;;;39.47;22.42;;;9.40;99.90;;;;;;5047271;28;20029;-80
2021/12/13 02:46:01;;;;;;;38.40;21.45;;;9.40;99.90;;;;;;5047232;28;20538;-80
2021/12/13 02:48:29;;;;;;;40.20;22.17;;;9.40;99.90;;;;;;5063552;28;20119;-79
2021/12/13 02:51:10;;;;;;;37.88;20.67;;;9.40;99.90;;;;;;5047087;28;20021;-79
2021/12/13 02:53:46;;;;;;;38.78;22.75;;;9.40;99.90;;;;;;5065063;28;20095;-79
2021/12/13 02:56:15;;;;;;;38.67;22.33;;;9.30;99.90;;;;;;5063819;28;20056;-79
2021/12/13 02:58:41;;;;;;;38.22;21.50;;;9.30;99.90;;;;;;5063721;28;20044;-79
2021/12/13 03:01:22;;;;;;;42.55;23.83;;;9.40;99.90;;;;;;5063615;28;20056;-79
2021/12/13 03:03:55;;;;;;;37.83;21.23;;;9.40;99.90;;;;;;5047096;28;20040;-80
2021/12/13 03:06:27;;;;;;;38.00;22.45;;;9.40;99.90;;;;;;5047053;28;20025;-79
2021/12/13 03:08:58;;;;;;;31.17;18.95;;;9.40;99.90;;;;;;5048166;28;20041;-79
2021/12/13 03:11:30;;;;;;;33.42;20.40;;;9.40;99.90;;;;;;5067218;28;20033;-79
2021/12/13 03:13:59;;;;;;;25.27;16.05;;;9.30;99.90;;;;;;5050457;28;20295;-79
2021/12/13 03:16:36;;;;;;;31.25;18.88;;;9.30;99.90;;;;;;5067324;28;20063;-79
2021/12/13 03:19:17;;;;;;;30.65;18.98;;;9.30;99.90;;;;;;5050168;28;20037;-79
2021/12/13 03:21:57;;;;;;;;;;;9.30;99.90;;;;;;5067536;28;20473;-79
2021/12/13 03:24:29;;;;;;;27.90;17.65;;;9.30;99.90;;;;;;5050489;28;19954;-79
2021/12/13 03:27:03;;;;;;;32.25;18.98;;;9.30;99.90;;;;;;5050448;28;20037;-79
2021/12/13 03:29:53;;;;;;;28.10;17.15;;;9.30;99.90;;;;;;5068804;28;20053;-79
2021/12/13 03:32:21;;;;;;;29.42;17.27;;;9.30;99.90;;;;;;5049889;28;20048;-79
2021/12/13 03:35:04;;;;;;;32.90;18.73;;;9.20;99.90;;;;;;5066635;28;20033;-80
2021/12/13 03:37:30;;;;;;;27.63;17.23;;;9.20;99.90;;;;;;5049661;28;20030;-79
2021/12/13 03:40:00;;;;;;;27.48;17.85;;;9.20;99.90;;;;;;5049980;28;20033;-79
2021/12/13 03:42:35;;;;;;;29.50;17.88;;;9.20;99.90;;;;;;5066720;28;20063;-79
2021/12/13 03:45:07;;;;;;;28.45;17.20;;;9.20;99.90;;;;;;5066501;28;20029;-79
2021/12/13 03:47:38;;;;;;;27.40;16.85;;;9.20;99.90;;;;;;5049551;28;20029;-79
2021/12/13 03:50:17;;;;;;;29.83;16.70;;;9.20;99.90;;;;;;5049798;28;20037;-79
2021/12/13 03:52:46;;;;;;;26.70;15.50;;;9.20;99.90;;;;;;5049559;28;20073;-79
2021/12/13 03:55:16;;;;;;;29.00;16.87;;;9.10;99.90;;;;;;5066442;28;20059;-79
2021/12/13 03:57:50;;;;;;;27.35;16.23;;;9.10;99.90;;;;;;5049374;28;20029;-79
2021/12/13 04:00:20;;;;;;;28.73;17.30;;;9.10;99.90;;;;;;5049472;28;20039;-79
2021/12/13 04:02:46;;;;;;;30.55;16.88;;;9.10;99.90;;;;;;5067305;28;20029;-79
2021/12/13 04:05:16;;;;;;;29.50;17.42;;;9.10;99.90;;;;;;5049337;28;20053;-79
2021/12/13 04:07:44;;;;;;;;;;;9.10;99.90;;;;;;5049870;28;20036;-79
2021/12/13 04:10:14;;;;;;;25.80;14.77;;;9.10;99.90;;;;;;5049209;28;19909;-79
2021/12/13 04:12:47;;;;;;;25.80;15.40;;;9.10;99.90;;;;;;5065875;28;20048;-79
2021/12/13 04:15:47;;;;;;;25.52;15.30;;;9.10;99.90;;;;;;5065877;28;20037;-79
2021/12/13 04:18:39;;;;;;;29.55;16.25;;;9.10;99.90;;;;;;5048883;28;20033;-79
2021/12/13 04:21:06;;;;;;;28.10;14.82;;;9.10;99.90;;;;;;5048927;28;20036;-79
2021/12/13 04:23:33;;;;;;;29.95;16.65;;;9.10;99.90;;;;;;5065926;28;20040;-79
2021/12/13 04:26:01;;;;;;;29.05;16.15;;;9.10;99.90;;;;;;5048912;28;20092;-79
2021/12/13 04:31:43;;;;;;;28.05;15.07;;;9.00;99.90;;;;;;5045175;28;20083;-79
2021/12/13 04:34:08;;;;;;;25.98;14.55;;;9.00;99.90;;;;;;5012558;28;20105;-79
2021/12/13 04:36:39;;;;;;;31.55;16.40;;;9.00;99.90;;;;;;5045414;28;20029;-79
2021/12/13 04:39:29;;;;;;;31.38;16.83;;;9.00;99.90;;;;;;5012505;28;20084;-79
2021/12/13 04:42:04;;;;;;;27.77;14.48;;;9.00;99.90;;;;;;5028808;28;20036;-79
2021/12/13 04:44:43;;;;;;;32.05;17.48;;;9.00;99.90;;;;;;5045513;28;20041;-79
2021/12/13 04:47:13;;;;;;;32.08;17.02;;;9.00;99.90;;;;;;5045159;28;20033;-79
2021/12/13 04:49:46;;;;;;;29.65;16.38;;;9.00;99.90;;;;;;5028647;28;20038;-79
2021/12/13 04:52:15;;;;;;;33.30;17.50;;;9.00;99.90;;;;;;5028686;28;20072;-79
2021/12/13 04:54:47;;;;;;;29.38;16.65;;;9.00;99.90;;;;;;5045224;28;20088;-79
2021/12/13 04:57:13;;;;;;;33.22;17.50;;;9.00;99.90;;;;;;5012182;28;20039;-79
2021/12/13 04:59:39;;;;;;;31.33;16.23;;;9.00;99.90;;;;;;5028504;28;20494;-79
2021/12/13 05:02:09;;;;;;;28.30;15.88;;;9.00;99.90;;;;;;5044916;28;20092;-80
2021/12/13 05:04:36;;;;;;;32.50;16.48;;;8.90;99.90;;;;;;5045017;28;20037;-79
2021/12/13 05:07:05;;;;;;;33.83;16.85;;;9.00;99.90;;;;;;5028275;28;20048;-79
2021/12/13 05:09:33;;;;;;;35.35;18.90;;;8.90;99.90;;;;;;5028480;28;20036;-79
2021/12/13 05:12:02;;;;;;;35.75;18.80;;;9.00;99.90;;;;;;5028266;28;20096;-79
2021/12/13 05:14:41;;;;;;;36.60;17.45;;;8.90;99.90;;;;;;5044917;28;20033;-79
2021/12/13 05:17:15;;;;;;;31.38;16.35;;;9.00;99.90;;;;;;5028094;28;20465;-79
2021/12/13 05:19:46;;;;;;;35.33;17.13;;;8.90;99.90;;;;;;5028150;28;20451;-79
2021/12/13 05:22:14;;;;;;;33.83;17.35;;;8.90;99.90;;;;;;5044606;28;20021;-79
2021/12/13 05:24:51;;;;;;;28.95;15.25;;;9.00;99.90;;;;;;5044809;28;20040;-79
2021/12/13 05:27:31;;;;;;;37.53;17.60;;;8.90;99.90;;;;;;5027995;28;20026;-79
2021/12/13 05:30:17;;;;;;;34.25;18.20;;;8.90;99.90;;;;;;5044236;28;20045;-79
2021/12/13 05:32:50;;;;;;;32.42;16.65;;;8.90;99.90;;;;;;5027784;28;20123;-79
2021/12/13 05:35:26;;;;;;;33.80;17.77;;;8.90;99.90;;;;;;5027902;28;20061;-79
2021/12/13 05:37:56;;;;;;;36.35;17.95;;;8.90;99.90;;;;;;5044317;28;20535;-79
2021/12/13 05:40:38;;;;;;;37.50;18.50;;;8.90;99.90;;;;;;5028150;28;20473;-79
2021/12/13 05:43:38;;;;;;;35.05;16.92;;;8.90;99.90;;;;;;5027890;28;20129;-79
2021/12/13 05:46:06;;;;;;;;;;;8.90;99.90;;;;;;5012087;28;20061;-81
2021/12/13 05:48:34;;;;;;;31.48;14.98;;;8.80;99.90;;;;;;5025355;28;20137;-80
2021/12/13 05:51:21;;;;;;;33.95;16.98;;;8.80;99.90;;;;;;5027049;28;20033;-81
2021/12/13 05:54:00;;;;;;;39.22;16.08;;;8.80;99.90;;;;;;5010381;28;20486;-81
2021/12/13 05:56:34;;;;;;;34.75;16.52;;;8.80;99.90;;;;;;5027616;28;20039;-81
2021/12/13 05:59:37;;;;;;;32.17;15.73;;;8.80;99.90;;;;;;5027421;28;20368;-81
2021/12/13 06:02:16;;;;;;;36.53;17.42;;;8.80;99.90;;;;;;4967806;28;20042;-81
2021/12/13 06:05:00;;;;;;;35.23;17.80;;;8.80;99.90;;;;;;4983967;28;20046;-80
2021/12/13 06:07:32;;;;;;;31.60;17.10;;;8.70;99.90;;;;;;4967640;28;20293;-80
2021/12/13 06:10:05;;;;;;;35.60;19.33;;;8.70;99.90;;;;;;4983974;28;20047;-82
2021/12/13 06:12:39;;;;;;;37.33;18.63;;;8.80;99.90;;;;;;4951772;28;20035;-82
2021/12/13 06:15:31;;;;;;;33.72;18.52;;;8.70;99.90;;;;;;4952322;28;20097;-81
2021/12/13 06:18:05;;;;;;;32.10;16.17;;;8.80;99.90;;;;;;4968961;28;20134;-80
2021/12/13 06:20:46;;;;;;;33.42;17.92;;;8.70;99.90;;;;;;4967980;28;20042;-82
2021/12/13 06:23:15;;;;;;;39.38;20.13;;;8.70;99.90;;;;;;4951649;28;20126;-80
2021/12/13 06:25:45;;;;;;;34.20;17.27;;;8.70;99.90;;;;;;4951832;28;20491;-81
2021/12/13 06:28:37;;;;;;;37.40;18.63;;;8.70;99.90;;;;;;4967432;28;20039;-80
2021/12/13 06:31:16;;;;;;;32.50;17.08;;;8.70;99.90;;;;;;4967091;28;20106;-81
2021/12/13 06:33:53;;;;;;;33.17;17.10;;;8.70;99.90;;;;;;4982986;28;20318;-80
2021/12/13 06:36:27;;;;;;;33.55;16.35;;;8.70;99.90;;;;;;4979561;28;20047;-81
2021/12/13 06:38:55;;;;;;;30.60;15.20;;;8.60;99.90;;;;;;4986106;28;20121;-81
2021/12/13 06:41:27;;;;;;;30.45;15.43;;;8.70;99.90;;;;;;5002904;28;20050;-81
2021/12/13 06:43:54;;;;;;;30.55;15.90;;;8.60;99.90;;;;;;5006499;28;20042;-81
2021/12/13 06:46:22;;;;;;;37.40;18.23;;;8.60;99.90;;;;;;5006724;28;20133;-81
2021/12/13 06:49:06;;;;;;;29.08;15.85;;;8.60;99.90;;;;;;5006316;28;20122;-81
2021/12/13 06:51:46;;;;;;;32.33;16.75;;;8.60;99.90;;;;;;4990380;28;20158;-81
2021/12/13 06:54:14;;;;;;;;;;;8.60;99.90;;;;;;5006829;28;20046;-80
2021/12/13 06:56:43;;;;;;;27.73;14.60;;;8.60;99.90;;;;;;5006697;28;19946;-81
2021/12/13 06:59:17;;;;;;;30.52;16.02;;;8.70;99.90;;;;;;5006443;28;20526;-81
2021/12/13 07:01:57;;;;;;;34.10;17.33;;;8.60;99.90;;;;;;4990341;28;20130;-80
2021/12/13 07:04:22;;;;;;;32.63;19.02;;;8.60;99.90;;;;;;4989944;28;20129;-80
2021/12/13 07:06:48;;;;;;;33.45;17.75;;;8.60;99.90;;;;;;4989928;28;20042;-80
2021/12/13 07:09:22;;;;;;;33.70;18.02;;;8.60;99.90;;;;;;5046954;28;20049;-80
2021/12/13 07:11:55;;;;;;;30.38;16.58;;;8.60;99.90;;;;;;5030527;28;20496;-80
2021/12/13 07:14:37;;;;;;;31.55;16.10;;;8.60;99.90;;;;;;5030281;28;20049;-81
2021/12/13 07:17:13;;;;;;;30.20;17.00;;;8.60;99.90;;;;;;5029994;28;20429;-81
2021/12/13 07:19:41;;;;;;;29.40;16.35;;;8.60;99.90;;;;;;5029880;28;20037;-81
2021/12/13 07:22:09;;;;;;;30.95;15.75;;;8.60;99.90;;;;;;5048043;28;20078;-81
2021/12/13 07:24:42;;;;;;;31.83;17.42;;;8.60;99.90;;;;;;5030286;28;20041;-81
2021/12/13 07:27:15;;;;;;;27.33;15.40;;;8.60;99.90;;;;;;5047798;28;20105;-81
2021/12/13 07:29:45;;;;;;;26.23;15.98;;;8.60;99.90;;;;;;5013546;28;20053;-80
2021/12/13 07:32:31;;;;;;;27.55;15.30;;;8.60;99.90;;;;;;5029830;28;20029;-81
2021/12/13 07:35:17;;;;;;;30.25;14.82;;;8.60;99.90;;;;;;5030105;28;20037;-81
2021/12/13 07:37:45;;;;;;;26.60;14.75;;;8.60;99.90;;;;;;5029837;28;20033;-81
2021/12/13 07:40:19;;;;;;;29.05;15.15;;;8.60;99.90;;;;;;5030020;28;20025;-81
2021/12/13 07:43:15;;;;;;;25.13;14.43;;;8.60;99.90;;;;;;5030028;28;20033;-80
2021/12/13 07:45:44;;;;;;;25.45;14.85;;;8.60;99.90;;;;;;5030310;28;20061;-81
2021/12/13 07:48:26;;;;;;;29.27;15.95;;;8.60;99.90;;;;;;5029552;28;20033;-81
2021/12/13 07:51:20;;;;;;;25.92;13.68;;;8.60;99.90;;;;;;5030083;28;20037;-81
2021/12/13 07:53:57;;;;;;;26.85;15.23;;;8.50;99.90;;;;;;5028817;28;20485;-80
2021/12/13 07:56:29;;;;;;;23.80;13.35;;;8.60;99.90;;;;;;5013653;28;20053;-81
2021/12/13 07:59:24;;;;;;;22.98;13.93;;;8.50;99.90;;;;;;5013367;28;20041;-81
2021/12/13 08:01:51;;;;;;;27.90;14.73;;;8.60;99.90;;;;;;5029446;28;20030;-80
2021/12/13 08:04:26;;;;;;;25.17;13.90;;;8.50;99.90;;;;;;5029800;28;20030;-81
2021/12/13 08:06:57;;;;;;;27.38;14.05;;;8.50;99.90;;;;;;5029502;28;20045;-81
2021/12/13 08:09:27;;;;;;;26.42;14.35;;;8.50;99.90;;;;;;5029562;28;20046;-81
2021/12/13 08:11:56;;;;;;;25.98;14.05;;;8.50;99.90;;;;;;5013166;28;20120;-82
2021/12/13 08:14:30;;;;;;;26.58;14.07;;;8.50;99.90;;;;;;5029445;28;20135;-80
2021/12/13 08:16:56;;;;;;;28.85;16.35;;;8.50;99.90;;;;;;5029075;28;20030;-80
2021/12/13 08:19:31;;;;;;;26.83;15.20;;;8.50;99.90;;;;;;5029323;28;20029;-80
2021/12/13 08:22:01;;;;;;;22.55;13.35;;;8.50;99.90;;;;;;5029520;28;20107;-80
2021/12/13 08:24:31;;;;;;;25.02;13.90;;;8.50;99.90;;;;;;5046920;28;20025;-80
2021/12/13 08:27:06;;;;;;;23.02;12.50;;;8.50;99.90;;;;;;5012874;28;20040;-80
2021/12/13 08:29:37;;;;;;;19.70;11.05;;;8.50;99.90;;;;;;5028438;28;20056;-80
2021/12/13 08:32:27;;;;;;;22.65;12.35;;;8.50;99.90;;;;;;5011871;28;20029;-80
2021/12/13 08:34:58;;;;;;;21.15;9.75;;;8.50;99.90;;;;;;5028472;28;20060;-80
2021/12/13 08:37:29;;;;;;;24.00;11.85;;;8.50;99.90;;;;;;5028044;28;20048;-80
2021/12/13 08:40:02;;;;;;;20.33;11.05;;;8.50;99.90;;;;;;5028160;28;20037;-80
2021/12/13 08:42:31;;;;;;;19.27;11.13;;;8.50;99.90;;;;;;5028062;28;20043;-80
2021/12/13 08:45:24;;;;;;;21.30;11.63;;;8.50;99.90;;;;;;5028119;28;20033;-80
2021/12/13 08:48:03;;;;;;;21.45;11.27;;;8.50;99.90;;;;;;5027650;28;20033;-80
2021/12/13 08:50:40;;;;;;;20.08;9.40;;;8.50;99.90;;;;;;5027984;28;20040;-80
2021/12/13 08:53:11;;;;;;;16.98;9.35;;;8.60;99.90;;;;;;5027891;28;20041;-80
2021/12/13 08:55:50;;;;;;;17.42;9.05;;;8.60;99.90;;;;;;5027713;28;20033;-80
2021/12/13 08:58:19;;;;;;;17.17;8.85;;;8.60;99.90;;;;;;5045514;28;20052;-80
2021/12/13 09:00:54;;;;;;;15.70;8.63;;;8.60;99.90;;;;;;5027781;28;20030;-80
2021/12/13 09:03:43;;;;;;;18.10;9.50;;;8.60;99.90;;;;;;5027627;28;20041;-80
2021/12/13 09:06:25;;;;;;;15.45;8.05;;;8.60;99.90;;;;;;5012049;28;20030;-81
2021/12/13 09:08:59;;;;;;;16.65;8.82;;;8.60;99.90;;;;;;5029023;28;20041;-81
2021/12/13 09:11:33;;;;;;;15.40;8.50;;;8.60;99.90;;;;;;5029305;28;20362;-80
2021/12/13 09:14:08;;;;;;;17.25;10.45;;;8.60;99.90;;;;;;5027503;28;20051;-81
2021/12/13 09:17:06;;;;;;;17.13;9.85;;;8.70;99.90;;;;;;5027177;28;20040;-81
2021/12/13 09:19:40;;;;;;;14.30;8.25;;;8.60;99.90;;;;;;5027582;28;20030;-80
2021/12/13 09:22:30;;;;;;;12.68;7.63;;;8.60;99.90;;;;;;5027478;28;20374;-81
2021/12/13 09:25:01;;;;;;;14.52;8.27;;;8.70;99.90;;;;;;5010858;28;20041;-81
2021/12/13 09:27:35;;;;;;;13.70;7.68;;;8.60;99.90;;;;;;5027336;28;20037;-80
2021/12/13 09:30:12;;;;;;;17.77;9.27;;;8.70;99.90;;;;;;5027041;28;20140;-81
2021/12/13 09:32:41;;;;;;;18.35;8.20;;;8.60;99.90;;;;;;5010570;28;20051;-80
2021/12/13 09:35:29;;;;;;;17.15;8.13;;;8.70;99.90;;;;;;5027158;28;20037;-81
2021/12/13 09:38:00;;;;;;;14.45;7.55;;;8.70;99.90;;;;;;5027531;28;20037;-80
2021/12/13 09:40:37;;;;;;;12.05;6.90;;;8.60;99.90;;;;;;5027299;28;20033;-81
2021/12/13 09:43:04;;;;;;;13.40;7.68;;;8.70;99.90;;;;;;5010979;28;20056;-80
2021/12/13 09:45:58;;;;;;;13.38;7.47;;;8.70;99.90;;;;;;5027151;28;20393;-81
2021/12/13 09:48:30;;;;;;;13.95;7.70;;;8.70;99.90;;;;;;5008538;28;20047;-80
2021/12/13 09:51:10;;;;;;;15.07;8.55;;;8.70;99.90;;;;;;5027209;28;20033;-80
2021/12/13 09:53:38;;;;;;;16.52;8.65;;;8.70;99.90;;;;;;5010747;28;20139;-80
2021/12/13 09:56:09;;;;;;;12.77;7.50;;;8.70;99.90;;;;;;5010356;28;20045;-81
2021/12/13 09:58:41;;;;;;;14.75;6.85;;;8.80;99.90;;;;;;5026834;28;20030;-81
2021/12/13 10:01:10;;;;;;;10.88;6.57;;;8.70;99.90;;;;;;5026557;28;20052;-80
2021/12/13 10:03:57;;;;;;;13.80;7.05;;;8.80;99.90;;;;;;5027146;28;20067;-80
2021/12/13 10:06:35;;;;;;;11.93;7.07;;;8.70;99.90;;;;;;5026897;28;20045;-81
2021/12/13 10:09:07;;;;;;;12.43;7.10;;;8.70;99.90;;;;;;5027206;28;20037;-81
2021/12/13 10:11:42;;;;;;;11.90;6.60;;;8.70;99.90;;;;;;5026786;28;20033;-81
2021/12/13 10:14:10;;;;;;;11.93;5.90;;;8.70;99.90;;;;;;5027127;28;20509;-81
2021/12/13 10:16:39;;;;;;;10.00;6.38;;;8.70;99.90;;;;;;5026576;28;20109;-81
2021/12/13 10:19:09;;;;;;;12.87;7.97;;;8.70;99.90;;;;;;5031039;28;20041;-81
2021/12/13 10:21:40;;;;;;;14.13;7.93;;;8.70;99.90;;;;;;5031035;28;20029;-81
2021/12/13 10:24:21;;;;;;;12.40;7.05;;;8.80;99.90;;;;;;5030840;28;20030;-81
2021/12/13 10:26:49;;;;;;;11.10;5.95;;;8.70;99.90;;;;;;5014295;28;20116;-81
2021/12/13 10:29:16;;;;;;;11.35;6.93;;;8.80;99.90;;;;;;5030517;28;20029;-81
2021/12/13 10:31:55;;;;;;;12.40;7.53;;;8.80;99.90;;;;;;5030260;28;20029;-81
2021/12/13 10:34:26;;;;;;;11.83;6.90;;;8.70;99.90;;;;;;5030649;28;20085;-81
2021/12/13 10:36:58;;;;;;;11.90;7.78;;;8.70;99.90;;;;;;5013944;28;20100;-80
2021/12/13 10:39:39;;;;;;;13.73;7.72;;;8.70;99.90;;;;;;5030601;28;20040;-81
2021/12/13 10:42:09;;;;;;;13.75;7.45;;;8.70;99.90;;;;;;5030280;28;20037;-81
2021/12/13 10:44:38;;;;;;;12.45;7.13;;;8.70;99.90;;;;;;5030517;28;20037;-81
2021/12/13 10:47:08;;;;;;;10.80;6.45;;;8.70;99.90;;;;;;5029931;28;20036;-81
2021/12/13 10:49:37;;;;;;;8.73;5.97;;;8.70;99.90;;;;;;5048114;28;20025;-81
2021/12/13 10:52:17;;;;;;;9.25;6.13;;;8.80;99.90;;;;;;5030359;28;20146;-81
2021/12/13 10:54:47;;;;;;;13.48;5.47;;;8.80;99.90;;;;;;5014175;28;20053;-81
2021/12/13 10:57:27;;;;;;;10.80;5.75;;;8.80;99.90;;;;;;5031090;28;20033;-81
2021/12/13 10:59:55;;;;;;;9.88;5.72;;;8.80;99.90;;;;;;5030028;28;20041;-81
2021/12/13 11:02:32;;;;;;;13.73;7.10;;;8.80;99.90;;;;;;5029747;28;20032;-80
2021/12/13 11:05:19;;;;;;;13.20;7.35;;;8.80;99.90;;;;;;5030067;28;20424;-81
2021/12/13 11:07:48;;;;;;;13.32;7.60;;;8.90;99.90;;;;;;5013225;28;20501;-81
2021/12/13 11:10:19;;;;;;;13.30;7.93;;;8.90;99.90;;;;;;5029945;28;20124;-81
2021/12/13 11:12:48;;;;;;;12.25;7.22;;;8.90;99.90;;;;;;5029564;28;20041;-81
2021/12/13 11:15:22;;;;;;;15.15;8.57;;;8.90;99.90;;;;;;5013319;28;20060;-81
2021/12/13 11:17:48;;;;;;;9.20;5.07;;;8.90;99.90;;;;;;5029452;28;20045;-81
2021/12/13 11:20:19;;;;;;;12.82;7.57;;;8.90;99.90;;;;;;5029806;28;20121;-81
2021/12/13 11:22:46;;;;;;;12.93;7.97;;;8.90;99.90;;;;;;5029631;28;20037;-81
2021/12/13 11:25:31;;;;;;;13.82;7.90;;;8.90;99.90;;;;;;5029717;28;20039;-80
2021/12/13 11:27:57;;;;;;;11.07;7.20;;;8.90;99.90;;;;;;5029255;28;20072;-81
2021/12/13 11:30:28;;;;;;;13.98;7.95;;;8.90;99.90;;;;;;5027938;28;20061;-80
2021/12/13 11:32:56;;;;;;;14.80;9.55;;;8.90;99.90;;;;;;5013241;28;20124;-80
2021/12/13 11:36:10;;;;;;;13.00;8.50;;;8.90;99.90;;;;;;5029399;28;20065;-80
2021/12/13 11:39:21;;;;;;;14.00;7.97;;;9.00;99.90;;;;;;5012741;28;20098;-81
2021/12/13 11:42:09;;;;;;;9.65;6.35;;;9.00;99.90;;;;;;5029358;28;20048;-80
2021/12/13 11:45:07;;;;;;;10.50;5.80;;;9.00;99.90;;;;;;5028764;28;20061;-81
2021/12/13 11:47:51;;;;;;;11.30;6.70;;;9.00;99.90;;;;;;5029067;28;20057;-80
2021/12/13 11:50:54;;;;;;;10.98;6.82;;;9.00;99.90;;;;;;5029057;28;20037;-80
2021/12/13 11:53:28;;;;;;;11.50;7.90;;;9.00;99.90;;;;;;5012585;28;20041;-81
2021/12/13 11:56:31;;;;;;;10.13;6.72;;;9.00;99.90;;;;;;5029127;28;20029;-80
2021/12/13 11:59:31;;;;;;;9.27;6.18;;;9.00;99.90;;;;;;5028513;28;20030;-80
2021/12/13 12:02:08;;;;;;;10.70;7.22;;;9.00;99.90;;;;;;5046750;28;20167;-81
2021/12/13 12:05:04;;;;;;;10.65;7.72;;;9.00;99.90;;;;;;5028859;28;20033;-80
2021/12/13 12:07:52;;;;;;;11.88;7.15;;;9.00;99.90;;;;;;5028965;28;20034;-80
2021/12/13 12:10:50;;;;;;;11.80;7.55;;;9.00;99.90;;;;;;5028914;28;20029;-81
2021/12/13 12:13:51;;;;;;;10.75;7.18;;;9.00;99.90;;;;;;5028622;28;20034;-81
2021/12/13 12:16:24;;;;;;;13.82;8.30;;;9.00;99.90;;;;;;5046136;28;20098;-81
2021/12/13 12:18:52;;;;;;;10.55;6.30;;;9.00;99.90;;;;;;5012236;28;20033;-81
2021/12/13 12:21:35;;;;;;;13.38;7.53;;;9.00;99.90;;;;;;5028530;28;20132;-81
2021/12/13 12:24:07;;;;;;;10.40;6.70;;;9.00;99.90;;;;;;5028271;28;20052;-81
2021/12/13 12:26:34;;;;;;;10.32;7.43;;;9.00;99.90;;;;;;5028646;28;20029;-81
2021/12/13 12:29:07;;;;;;;9.05;6.32;;;9.00;99.90;;;;;;5027942;28;20039;-81
2021/12/13 12:31:38;;;;;;;10.10;6.43;;;9.00;99.90;;;;;;5028743;28;20068;-81
2021/12/13 12:34:04;;;;;;;;;;;9.00;99.90;;;;;;5028925;28;20029;-81
2021/12/13 12:36:59;;;;;;;9.27;5.10;;;9.00;99.90;;;;;;5028584;28;19946;-82
2021/12/13 12:40:04;;;;;;;10.10;5.05;;;9.00;99.90;;;;;;5011617;28;20132;-81
2021/12/13 12:42:39;;;;;;;6.18;3.85;;;9.00;99.90;;;;;;5028558;28;20040;-82
2021/12/13 12:45:22;;;;;;;7.22;4.50;;;9.00;99.90;;;;;;5028206;28;20074;-82
2021/12/13 12:47:50;;;;;;;6.70;3.47;;;9.00;99.90;;;;;;5028393;28;20060;-82
2021/12/13 12:50:26;;;;;;;7.53;3.97;;;9.00;99.90;;;;;;5028280;28;20111;-82
2021/12/13 12:52:55;;;;;;;7.32;3.50;;;9.00;99.90;;;;;;5028266;28;20065;-82
2021/12/13 12:55:24;;;;;;;5.97;3.42;;;9.00;99.90;;;;;;5028316;28;20036;-82
2021/12/13 12:57:50;;;;;;;4.60;2.93;;;9.10;99.90;;;;;;5028128;28;20033;-82
2021/12/13 13:00:22;;;;;;;6.05;3.15;;;9.10;99.90;;;;;;5027827;28;20393;-82
2021/12/13 13:02:47;;;;;;;5.80;3.60;;;9.10;99.90;;;;;;5011575;28;20025;-82
2021/12/13 13:05:14;;;;;;;5.20;3.55;;;9.10;99.90;;;;;;5011687;28;20044;-82
2021/12/13 13:07:40;;;;;;;7.07;4.00;;;9.20;99.90;;;;;;5027843;28;20049;-82
2021/12/13 13:13:06;;;;;;;6.20;3.50;;;9.10;99.90;;;;;;5027770;28;20033;-82
2021/12/13 13:15:41;;;;;;;6.15;4.20;;;9.10;99.90;;;;;;5011372;28;20063;-82
2021/12/13 13:18:38;;;;;;;5.53;3.65;;;9.10;99.90;;;;;;5027967;28;20036;-82
2021/12/13 13:21:05;;;;;;;5.80;3.80;;;9.10;99.90;;;;;;5002790;28;20037;-81
2021/12/13 13:23:42;;;;;;;5.18;2.60;;;9.20;99.90;;;;;;5011489;28;20398;-82
2021/12/13 13:26:08;;;;;;;4.90;3.25;;;9.20;99.90;;;;;;5027625;28;20033;-82
2021/12/13 13:28:55;;;;;;;6.85;3.67;;;9.10;99.90;;;;;;5027625;28;20052;-82
2021/12/13 13:31:52;;;;;;;4.47;3.22;;;9.10;99.90;;;;;;4951270;28;20050;-82
2021/12/13 13:34:30;;;;;;;5.85;3.35;;;9.10;99.90;;;;;;4983765;28;20542;-82
2021/12/13 13:37:07;;;;;;;5.70;3.63;;;9.20;99.90;;;;;;4983704;28;20039;-83
2021/12/13 13:39:58;;;;;;;6.00;3.35;;;9.10;99.90;;;;;;4983857;28;20049;-82
2021/12/13 13:42:29;;;;;;;5.68;3.25;;;9.10;99.90;;;;;;4967627;28;20039;-82